sensor_id;sensor_type;location;lat;lon;timestamp;temperature;humidity
18321;DHT22;54904;54.350;18.664;2024-01-25T00:00:59;8.30;99.90
18321;DHT22;54904;54.350;18.664;2024-01-25T00:03:30;8.30;99.90
18321;DHT22;54904;54.350;18.664;2024-01-25T00:05:58;8.30;99.90
18321;DHT22;54904;54.350;18.664;2024-01-25T00:08:25;8.30;99.90
18321;DHT22;54904;54.350;18.664;2024-01-25T00:10:53;8.30;99.90
18321;DHT22;54904;54.350;18.664;2024-01-25T00:13:20;8.30;99.90
18321;DHT22;54904;54.350;18.664;2024-01-25T00:15:47;8.30;99.90
18321;DHT22;54904;54.350;18.664;2024-01-25T00:18:14;8.30;99.90
18321;DHT22;54904;54.350;18.664;2024-01-25T00:20:42;8.30;99.90
18321;DHT22;54904;54.350;18.664;2024-01-25T00:23:09;8.30;99.90
18321;DHT22;54904;54.350;18.664;2024-01-25T00:25:36;8.30;99.90
18321;DHT22;54904;54.350;18.664;2024-01-25T00:28:04;8.30;99.90
18321;DHT22;54904;54.350;18.664;2024-01-25T00:30:31;8.30;99.90
18321;DHT22;54904;54.350;18.664;2024-01-25T00:32:58;8.30;99.90
18321;DHT22;54904;54.350;18.664;2024-01-25T00:35:25;8.30;99.90
18321;DHT22;54904;54.350;18.664;2024-01-25T00:37:54;8.30;99.90
18321;DHT22;54904;54.350;18.664;2024-01-25T00:40:22;8.30;99.90
18321;DHT22;54904;54.350;18.664;2024-01-25T00:42:49;8.30;99.90
18321;DHT22;54904;54.350;18.664;2024-01-25T00:45:19;8.30;99.90
18321;DHT22;54904;54.350;18.664;2024-01-25T00:47:47;8.30;99.90
18321;DHT22;54904;54.350;18.664;2024-01-25T00:50:14;8.30;99.90
18321;DHT22;54904;54.350;18.664;2024-01-25T00:52:43;8.30;99.90
18321;DHT22;54904;54.350;18.664;2024-01-25T00:55:13;8.30;99.90
18321;DHT22;54904;54.350;18.664;2024-01-25T00:57:41;8.30;99.90
18321;DHT22;54904;54.350;18.664;2024-01-25T01:00:09;8.30;99.90
18321;DHT22;54904;54.350;18.664;2024-01-25T01:02:42;8.30;99.90
18321;DHT22;54904;54.350;18.664;2024-01-25T01:05:10;8.30;99.90
18321;DHT22;54904;54.350;18.664;2024-01-25T01:07:38;8.30;99.90
18321;DHT22;54904;54.350;18.664;2024-01-25T01:10:07;8.30;99.90
18321;DHT22;54904;54.350;18.664;2024-01-25T01:12:36;8.30;99.90
18321;DHT22;54904;54.350;18.664;2024-01-25T01:15:04;8.30;99.90
18321;DHT22;54904;54.350;18.664;2024-01-25T01:17:31;8.30;99.90
18321;DHT22;54904;54.350;18.664;2024-01-25T01:19:58;8.30;99.90
18321;DHT22;54904;54.350;18.664;2024-01-25T01:22:27;8.30;99.90
18321;DHT22;54904;54.350;18.664;2024-01-25T01:24:54;8.30;99.90
18321;DHT22;54904;54.350;18.664;2024-01-25T01:27:21;8.20;99.90
18321;DHT22;54904;54.350;18.664;2024-01-25T01:29:50;8.20;99.90
18321;DHT22;54904;54.350;18.664;2024-01-25T01:32:17;8.20;99.90
18321;DHT22;54904;54.350;18.664;2024-01-25T01:34:44;8.20;99.90
18321;DHT22;54904;54.350;18.664;2024-01-25T01:37:11;8.20;99.90
18321;DHT22;54904;54.350;18.664;2024-01-25T01:39:38;8.20;99.90
18321;DHT22;54904;54.350;18.664;2024-01-25T01:42:05;8.20;99.90
18321;DHT22;54904;54.350;18.664;2024-01-25T01:44:32;8.20;99.90
18321;DHT22;54904;54.350;18.664;2024-01-25T01:47:01;8.20;99.90
18321;DHT22;54904;54.350;18.664;2024-01-25T01:49:28;8.20;99.90
18321;DHT22;54904;54.350;18.664;2024-01-25T01:51:55;8.20;99.90
18321;DHT22;54904;54.350;18.664;2024-01-25T01:54:23;8.20;99.90
18321;DHT22;54904;54.350;18.664;2024-01-25T01:56:51;8.20;99.90
18321;DHT22;54904;54.350;18.664;2024-01-25T01:59:18;8.20;99.90
18321;DHT22;54904;54.350;18.664;2024-01-25T02:01:46;8.20;99.90
18321;DHT22;54904;54.350;18.664;2024-01-25T02:04:14;8.20;99.90
18321;DHT22;54904;54.350;18.664;2024-01-25T02:06:42;8.10;99.90
18321;DHT22;54904;54.350;18.664;2024-01-25T02:09:09;8.10;99.90
18321;DHT22;54904;54.350;18.664;2024-01-25T02:11:39;8.10;99.90
18321;DHT22;54904;54.350;18.664;2024-01-25T02:14:08;8.10;99.90
18321;DHT22;54904;54.350;18.664;2024-01-25T02:16:37;8.10;99.90
18321;DHT22;54904;54.350;18.664;2024-01-25T02:19:04;8.10;99.90
18321;DHT22;54904;54.350;18.664;2024-01-25T02:21:33;8.10;99.90
18321;DHT22;54904;54.350;18.664;2024-01-25T02:24:01;8.10;99.90
18321;DHT22;54904;54.350;18.664;2024-01-25T02:26:28;8.10;99.90
18321;DHT22;54904;54.350;18.664;2024-01-25T02:28:55;8.10;99.90
18321;DHT22;54904;54.350;18.664;2024-01-25T02:31:22;8.10;99.90
18321;DHT22;54904;54.350;18.664;2024-01-25T02:33:49;8.10;99.90
18321;DHT22;54904;54.350;18.664;2024-01-25T02:36:16;8.00;99.90
18321;DHT22;54904;54.350;18.664;2024-01-25T02:38:43;8.00;99.90
18321;DHT22;54904;54.350;18.664;2024-01-25T02:41:11;8.00;99.90
18321;DHT22;54904;54.350;18.664;2024-01-25T02:43:38;8.10;99.90
18321;DHT22;54904;54.350;18.664;2024-01-25T02:46:05;8.10;99.90
18321;DHT22;54904;54.350;18.664;2024-01-25T02:48:34;8.10;99.90
18321;DHT22;54904;54.350;18.664;2024-01-25T02:51:01;8.00;99.90
18321;DHT22;54904;54.350;18.664;2024-01-25T02:53:28;8.00;99.90
18321;DHT22;54904;54.350;18.664;2024-01-25T02:55:55;8.00;99.90
18321;DHT22;54904;54.350;18.664;2024-01-25T02:58:23;8.10;99.90
18321;DHT22;54904;54.350;18.664;2024-01-25T03:00:50;8.00;99.90
18321;DHT22;54904;54.350;18.664;2024-01-25T03:03:17;8.00;99.90
18321;DHT22;54904;54.350;18.664;2024-01-25T03:05:45;8.00;99.90
18321;DHT22;54904;54.350;18.664;2024-01-25T03:08:12;8.10;99.90
18321;DHT22;54904;54.350;18.664;2024-01-25T03:10:39;8.10;99.90
18321;DHT22;54904;54.350;18.664;2024-01-25T03:13:06;8.10;99.90
18321;DHT22;54904;54.350;18.664;2024-01-25T03:15:33;8.10;99.90
18321;DHT22;54904;54.350;18.664;2024-01-25T03:18:00;8.10;99.90
18321;DHT22;54904;54.350;18.664;2024-01-25T03:20:27;8.10;99.90
18321;DHT22;54904;54.350;18.664;2024-01-25T03:22:54;8.20;99.90
18321;DHT22;54904;54.350;18.664;2024-01-25T03:25:21;8.10;99.90
18321;DHT22;54904;54.350;18.664;2024-01-25T03:27:48;8.20;99.90
18321;DHT22;54904;54.350;18.664;2024-01-25T03:30:15;8.20;99.90
18321;DHT22;54904;54.350;18.664;2024-01-25T03:32:46;8.20;99.90
18321;DHT22;54904;54.350;18.664;2024-01-25T03:35:13;8.20;99.90
18321;DHT22;54904;54.350;18.664;2024-01-25T03:37:40;8.30;99.90
18321;DHT22;54904;54.350;18.664;2024-01-25T03:40:08;8.30;99.90
18321;DHT22;54904;54.350;18.664;2024-01-25T03:42:35;8.30;99.90
18321;DHT22;54904;54.350;18.664;2024-01-25T03:45:02;8.30;99.90
18321;DHT22;54904;54.350;18.664;2024-01-25T03:47:29;8.30;99.90
18321;DHT22;54904;54.350;18.664;2024-01-25T03:49:58;8.30;99.90
18321;DHT22;54904;54.350;18.664;2024-01-25T03:52:25;8.30;99.90
18321;DHT22;54904;54.350;18.664;2024-01-25T03:54:55;8.30;99.90
18321;DHT22;54904;54.350;18.664;2024-01-25T03:57:22;8.30;99.90
18321;DHT22;54904;54.350;18.664;2024-01-25T03:59:49;8.40;99.90
18321;DHT22;54904;54.350;18.664;2024-01-25T04:02:16;8.40;99.90
18321;DHT22;54904;54.350;18.664;2024-01-25T04:04:44;8.30;99.90
18321;DHT22;54904;54.350;18.664;2024-01-25T04:07:12;8.40;99.90
18321;DHT22;54904;54.350;18.664;2024-01-25T04:09:39;8.40;99.90
18321;DHT22;54904;54.350;18.664;2024-01-25T04:12:06;8.40;99.90
18321;DHT22;54904;54.350;18.664;2024-01-25T04:14:33;8.30;99.90
18321;DHT22;54904;54.350;18.664;2024-01-25T04:17:00;8.40;99.90
18321;DHT22;54904;54.350;18.664;2024-01-25T04:19:27;8.30;99.90
18321;DHT22;54904;54.350;18.664;2024-01-25T04:21:54;8.30;99.90
18321;DHT22;54904;54.350;18.664;2024-01-25T04:24:23;8.30;99.90
18321;DHT22;54904;54.350;18.664;2024-01-25T04:26:50;8.30;99.90
18321;DHT22;54904;54.350;18.664;2024-01-25T04:29:17;8.30;99.90
18321;DHT22;54904;54.350;18.664;2024-01-25T04:31:45;8.30;99.90
18321;DHT22;54904;54.350;18.664;2024-01-25T04:34:14;8.30;99.90
18321;DHT22;54904;54.350;18.664;2024-01-25T04:36:41;8.30;99.90
18321;DHT22;54904;54.350;18.664;2024-01-25T04:39:09;8.30;99.90
18321;DHT22;54904;54.350;18.664;2024-01-25T04:41:37;8.30;99.90
18321;DHT22;54904;54.350;18.664;2024-01-25T04:44:04;8.40;99.90
18321;DHT22;54904;54.350;18.664;2024-01-25T04:46:31;8.40;99.90
18321;DHT22;54904;54.350;18.664;2024-01-25T04:49:02;8.40;99.90
18321;DHT22;54904;54.350;18.664;2024-01-25T04:51:29;8.40;99.90
18321;DHT22;54904;54.350;18.664;2024-01-25T04:53:56;8.40;99.90
18321;DHT22;54904;54.350;18.664;2024-01-25T04:56:23;8.40;99.90
18321;DHT22;54904;54.350;18.664;2024-01-25T04:58:51;8.40;99.90
18321;DHT22;54904;54.350;18.664;2024-01-25T05:01:18;8.40;99.90
18321;DHT22;54904;54.350;18.664;2024-01-25T05:03:45;8.40;99.90
18321;DHT22;54904;54.350;18.664;2024-01-25T05:06:12;8.40;99.90
18321;DHT22;54904;54.350;18.664;2024-01-25T05:08:41;8.40;99.90
18321;DHT22;54904;54.350;18.664;2024-01-25T05:11:09;8.40;99.90
18321;DHT22;54904;54.350;18.664;2024-01-25T05:13:35;8.40;99.90
18321;DHT22;54904;54.350;18.664;2024-01-25T05:16:04;8.40;99.90
18321;DHT22;54904;54.350;18.664;2024-01-25T05:18:31;8.40;99.90
18321;DHT22;54904;54.350;18.664;2024-01-25T05:20:58;8.40;99.90
18321;DHT22;54904;54.350;18.664;2024-01-25T05:23:25;8.40;99.90
18321;DHT22;54904;54.350;18.664;2024-01-25T05:25:52;8.40;99.90
18321;DHT22;54904;54.350;18.664;2024-01-25T05:28:19;8.40;99.90
18321;DHT22;54904;54.350;18.664;2024-01-25T05:30:46;8.40;99.90
18321;DHT22;54904;54.350;18.664;2024-01-25T05:33:16;8.40;99.90
18321;DHT22;54904;54.350;18.664;2024-01-25T05:35:43;8.40;99.90
18321;DHT22;54904;54.350;18.664;2024-01-25T05:38:10;8.40;99.90
18321;DHT22;54904;54.350;18.664;2024-01-25T05:40:37;8.40;99.90
18321;DHT22;54904;54.350;18.664;2024-01-25T05:43:04;8.40;99.90
18321;DHT22;54904;54.350;18.664;2024-01-25T05:45:31;8.40;99.90
18321;DHT22;54904;54.350;18.664;2024-01-25T05:47:59;8.40;99.90
18321;DHT22;54904;54.350;18.664;2024-01-25T05:50:28;8.30;99.90
18321;DHT22;54904;54.350;18.664;2024-01-25T05:52:55;8.40;99.90
18321;DHT22;54904;54.350;18.664;2024-01-25T05:55:22;8.40;99.90
18321;DHT22;54904;54.350;18.664;2024-01-25T05:57:49;8.30;99.90
18321;DHT22;54904;54.350;18.664;2024-01-25T06:00:16;8.40;99.90
18321;DHT22;54904;54.350;18.664;2024-01-25T06:02:45;8.40;99.90
18321;DHT22;54904;54.350;18.664;2024-01-25T06:05:12;8.40;99.90
18321;DHT22;54904;54.350;18.664;2024-01-25T06:07:40;8.40;99.90
18321;DHT22;54904;54.350;18.664;2024-01-25T06:10:08;8.40;99.90
18321;DHT22;54904;54.350;18.664;2024-01-25T06:12:35;8.40;99.90
18321;DHT22;54904;54.350;18.664;2024-01-25T06:15:02;8.40;99.90
18321;DHT22;54904;54.350;18.664;2024-01-25T06:17:30;8.50;99.90
18321;DHT22;54904;54.350;18.664;2024-01-25T06:19:57;8.40;99.90
18321;DHT22;54904;54.350;18.664;2024-01-25T06:22:24;8.40;99.90
18321;DHT22;54904;54.350;18.664;2024-01-25T06:24:53;8.50;99.90
18321;DHT22;54904;54.350;18.664;2024-01-25T06:27:20;8.50;99.90
18321;DHT22;54904;54.350;18.664;2024-01-25T06:29:47;8.50;99.90
18321;DHT22;54904;54.350;18.664;2024-01-25T06:32:14;8.50;99.90
18321;DHT22;54904;54.350;18.664;2024-01-25T06:34:41;8.50;99.90
18321;DHT22;54904;54.350;18.664;2024-01-25T06:37:08;8.50;99.90
18321;DHT22;54904;54.350;18.664;2024-01-25T06:39:36;8.50;99.90
18321;DHT22;54904;54.350;18.664;2024-01-25T06:42:05;8.50;99.90
18321;DHT22;54904;54.350;18.664;2024-01-25T06:44:32;8.50;99.90
18321;DHT22;54904;54.350;18.664;2024-01-25T06:47:03;8.60;99.90
18321;DHT22;54904;54.350;18.664;2024-01-25T06:49:30;8.60;99.90
18321;DHT22;54904;54.350;18.664;2024-01-25T06:51:57;8.60;99.90
18321;DHT22;54904;54.350;18.664;2024-01-25T06:54:24;8.60;99.90
18321;DHT22;54904;54.350;18.664;2024-01-25T06:56:51;8.60;99.90
18321;DHT22;54904;54.350;18.664;2024-01-25T06:59:20;8.60;99.90
18321;DHT22;54904;54.350;18.664;2024-01-25T07:01:47;8.60;99.90
18321;DHT22;54904;54.350;18.664;2024-01-25T07:04:15;8.60;99.90
18321;DHT22;54904;54.350;18.664;2024-01-25T07:06:42;8.60;99.90
18321;DHT22;54904;54.350;18.664;2024-01-25T07:09:09;8.50;99.90
18321;DHT22;54904;54.350;18.664;2024-01-25T07:11:40;8.30;99.90
18321;DHT22;54904;54.350;18.664;2024-01-25T07:14:07;8.20;99.90
18321;DHT22;54904;54.350;18.664;2024-01-25T07:16:35;8.00;99.90
18321;DHT22;54904;54.350;18.664;2024-01-25T07:19:02;7.90;99.90
18321;DHT22;54904;54.350;18.664;2024-01-25T07:21:30;7.80;99.90
18321;DHT22;54904;54.350;18.664;2024-01-25T07:23:58;7.70;99.90
18321;DHT22;54904;54.350;18.664;2024-01-25T07:26:25;7.50;99.90
18321;DHT22;54904;54.350;18.664;2024-01-25T07:28:52;7.40;99.90
18321;DHT22;54904;54.350;18.664;2024-01-25T07:31:24;7.30;99.90
18321;DHT22;54904;54.350;18.664;2024-01-25T07:33:52;7.20;99.90
18321;DHT22;54904;54.350;18.664;2024-01-25T07:36:20;7.10;99.90
18321;DHT22;54904;54.350;18.664;2024-01-25T07:38:47;7.00;99.90
18321;DHT22;54904;54.350;18.664;2024-01-25T07:41:14;7.00;99.90
18321;DHT22;54904;54.350;18.664;2024-01-25T07:43:41;6.90;99.90
18321;DHT22;54904;54.350;18.664;2024-01-25T07:46:09;6.90;99.90
18321;DHT22;54904;54.350;18.664;2024-01-25T07:48:37;6.80;99.90
18321;DHT22;54904;54.350;18.664;2024-01-25T07:51:12;6.80;99.90
18321;DHT22;54904;54.350;18.664;2024-01-25T07:53:39;6.80;99.90
18321;DHT22;54904;54.350;18.664;2024-01-25T07:56:06;6.80;99.90
18321;DHT22;54904;54.350;18.664;2024-01-25T07:58:35;6.70;99.90
18321;DHT22;54904;54.350;18.664;2024-01-25T08:01:03;6.80;99.90
18321;DHT22;54904;54.350;18.664;2024-01-25T08:03:32;6.80;99.90
18321;DHT22;54904;54.350;18.664;2024-01-25T08:05:59;6.80;99.90
18321;DHT22;54904;54.350;18.664;2024-01-25T08:08:27;6.80;99.90
18321;DHT22;54904;54.350;18.664;2024-01-25T08:10:55;6.90;99.90
18321;DHT22;54904;54.350;18.664;2024-01-25T08:13:22;6.90;99.90
18321;DHT22;54904;54.350;18.664;2024-01-25T08:15:49;7.00;99.90
18321;DHT22;54904;54.350;18.664;2024-01-25T08:18:16;7.00;99.90
18321;DHT22;54904;54.350;18.664;2024-01-25T08:20:44;7.00;99.90
18321;DHT22;54904;54.350;18.664;2024-01-25T08:23:12;7.00;99.90
18321;DHT22;54904;54.350;18.664;2024-01-25T08:25:41;7.00;99.90
18321;DHT22;54904;54.350;18.664;2024-01-25T08:28:08;7.00;99.90
18321;DHT22;54904;54.350;18.664;2024-01-25T08:30:35;7.10;99.90
18321;DHT22;54904;54.350;18.664;2024-01-25T08:33:02;7.00;99.90
18321;DHT22;54904;54.350;18.664;2024-01-25T08:35:30;7.10;99.90
18321;DHT22;54904;54.350;18.664;2024-01-25T08:37:57;7.10;99.90
18321;DHT22;54904;54.350;18.664;2024-01-25T08:40:24;7.10;99.90
18321;DHT22;54904;54.350;18.664;2024-01-25T08:42:52;7.10;99.90
18321;DHT22;54904;54.350;18.664;2024-01-25T08:45:19;7.10;99.90
18321;DHT22;54904;54.350;18.664;2024-01-25T08:47:46;7.10;99.90
18321;DHT22;54904;54.350;18.664;2024-01-25T08:50:15;7.20;99.90
18321;DHT22;54904;54.350;18.664;2024-01-25T08:52:42;7.20;99.90
18321;DHT22;54904;54.350;18.664;2024-01-25T08:55:09;7.20;99.90
18321;DHT22;54904;54.350;18.664;2024-01-25T08:57:36;7.20;99.90
18321;DHT22;54904;54.350;18.664;2024-01-25T09:00:06;7.20;99.90
18321;DHT22;54904;54.350;18.664;2024-01-25T09:02:36;7.20;99.90
18321;DHT22;54904;54.350;18.664;2024-01-25T09:05:04;7.20;99.90
18321;DHT22;54904;54.350;18.664;2024-01-25T09:07:31;7.20;99.90
18321;DHT22;54904;54.350;18.664;2024-01-25T09:09:58;7.30;99.90
18321;DHT22;54904;54.350;18.664;2024-01-25T09:12:25;7.40;99.90
18321;DHT22;54904;54.350;18.664;2024-01-25T09:14:52;7.50;99.90
18321;DHT22;54904;54.350;18.664;2024-01-25T09:17:20;7.60;99.90
18321;DHT22;54904;54.350;18.664;2024-01-25T09:19:48;7.70;99.90
18321;DHT22;54904;54.350;18.664;2024-01-25T09:22:16;7.80;99.90
18321;DHT22;54904;54.350;18.664;2024-01-25T09:24:45;8.00;99.90
18321;DHT22;54904;54.350;18.664;2024-01-25T09:27:12;8.10;99.90
18321;DHT22;54904;54.350;18.664;2024-01-25T09:29:40;8.30;99.90
18321;DHT22;54904;54.350;18.664;2024-01-25T09:32:08;8.50;99.90
18321;DHT22;54904;54.350;18.664;2024-01-25T09:34:37;8.70;99.90
18321;DHT22;54904;54.350;18.664;2024-01-25T09:37:04;8.90;99.90
18321;DHT22;54904;54.350;18.664;2024-01-25T09:39:31;9.30;99.90
18321;DHT22;54904;54.350;18.664;2024-01-25T09:41:58;9.80;99.90
18321;DHT22;54904;54.350;18.664;2024-01-25T09:44:25;10.40;99.90
18321;DHT22;54904;54.350;18.664;2024-01-25T09:46:53;10.90;99.90
18321;DHT22;54904;54.350;18.664;2024-01-25T09:49:20;10.70;99.90
18321;DHT22;54904;54.350;18.664;2024-01-25T09:51:50;10.90;99.90
18321;DHT22;54904;54.350;18.664;2024-01-25T09:54:18;10.90;99.90
18321;DHT22;54904;54.350;18.664;2024-01-25T09:56:45;11.10;99.90
18321;DHT22;54904;54.350;18.664;2024-01-25T09:59:13;11.10;99.90
18321;DHT22;54904;54.350;18.664;2024-01-25T10:01:40;11.20;99.90
18321;DHT22;54904;54.350;18.664;2024-01-25T10:04:07;11.30;99.90
18321;DHT22;54904;54.350;18.664;2024-01-25T10:06:35;11.50;99.90
18321;DHT22;54904;54.350;18.664;2024-01-25T10:09:04;11.40;99.90
18321;DHT22;54904;54.350;18.664;2024-01-25T10:11:35;11.20;99.90
18321;DHT22;54904;54.350;18.664;2024-01-25T10:14:03;10.90;99.90
18321;DHT22;54904;54.350;18.664;2024-01-25T10:16:30;11.30;99.90
18321;DHT22;54904;54.350;18.664;2024-01-25T10:18:57;11.80;99.90
18321;DHT22;54904;54.350;18.664;2024-01-25T10:21:24;12.50;99.90
18321;DHT22;54904;54.350;18.664;2024-01-25T10:23:52;12.80;99.30
18321;DHT22;54904;54.350;18.664;2024-01-25T10:26:27;12.80;98.80
18321;DHT22;54904;54.350;18.664;2024-01-25T10:28:54;12.50;98.90
18321;DHT22;54904;54.350;18.664;2024-01-25T10:31:23;12.00;97.50
18321;DHT22;54904;54.350;18.664;2024-01-25T10:33:52;11.60;98.40
18321;DHT22;54904;54.350;18.664;2024-01-25T10:36:20;11.30;98.30
18321;DHT22;54904;54.350;18.664;2024-01-25T10:38:48;11.00;98.50
18321;DHT22;54904;54.350;18.664;2024-01-25T10:41:16;10.80;98.60
18321;DHT22;54904;54.350;18.664;2024-01-25T10:43:44;10.60;99.00
18321;DHT22;54904;54.350;18.664;2024-01-25T10:46:11;10.90;99.10
18321;DHT22;54904;54.350;18.664;2024-01-25T10:48:39;11.40;99.30
18321;DHT22;54904;54.350;18.664;2024-01-25T10:51:07;11.90;98.90
18321;DHT22;54904;54.350;18.664;2024-01-25T10:53:35;12.40;97.80
18321;DHT22;54904;54.350;18.664;2024-01-25T10:56:04;13.10;97.50
18321;DHT22;54904;54.350;18.664;2024-01-25T10:58:32;13.20;96.90
18321;DHT22;54904;54.350;18.664;2024-01-25T11:01:02;13.10;96.00
18321;DHT22;54904;54.350;18.664;2024-01-25T11:03:30;13.00;96.20
18321;DHT22;54904;54.350;18.664;2024-01-25T11:06:06;13.10;96.20
18321;DHT22;54904;54.350;18.664;2024-01-25T11:08:34;13.20;95.70
18321;DHT22;54904;54.350;18.664;2024-01-25T11:11:05;13.00;94.20
18321;DHT22;54904;54.350;18.664;2024-01-25T11:13:34;12.70;93.90
18321;DHT22;54904;54.350;18.664;2024-01-25T11:16:14;12.50;94.10
18321;DHT22;54904;54.350;18.664;2024-01-25T11:18:51;12.10;94.40
18321;DHT22;54904;54.350;18.664;2024-01-25T11:21:22;11.90;95.10
18321;DHT22;54904;54.350;18.664;2024-01-25T11:23:59;12.00;95.40
18321;DHT22;54904;54.350;18.664;2024-01-25T11:26:26;12.40;95.60
18321;DHT22;54904;54.350;18.664;2024-01-25T11:28:53;12.60;94.90
18321;DHT22;54904;54.350;18.664;2024-01-25T11:31:22;12.50;94.50
18321;DHT22;54904;54.350;18.664;2024-01-25T11:33:50;12.20;93.90
18321;DHT22;54904;54.350;18.664;2024-01-25T11:36:20;11.90;94.50
18321;DHT22;54904;54.350;18.664;2024-01-25T11:38:48;11.60;94.90
18321;DHT22;54904;54.350;18.664;2024-01-25T11:41:15;11.30;95.20
18321;DHT22;54904;54.350;18.664;2024-01-25T11:43:42;11.10;95.30
18321;DHT22;54904;54.350;18.664;2024-01-25T11:46:09;10.90;95.40
18321;DHT22;54904;54.350;18.664;2024-01-25T11:48:40;10.60;95.60
18321;DHT22;54904;54.350;18.664;2024-01-25T11:51:09;10.40;95.90
18321;DHT22;54904;54.350;18.664;2024-01-25T11:53:36;10.20;96.10
18321;DHT22;54904;54.350;18.664;2024-01-25T11:56:06;10.00;96.50
18321;DHT22;54904;54.350;18.664;2024-01-25T11:58:34;9.90;97.30
18321;DHT22;54904;54.350;18.664;2024-01-25T12:01:02;9.80;97.60
18321;DHT22;54904;54.350;18.664;2024-01-25T12:03:31;9.60;97.80
18321;DHT22;54904;54.350;18.664;2024-01-25T12:06:00;9.50;98.10
18321;DHT22;54904;54.350;18.664;2024-01-25T12:08:27;9.40;97.90
18321;DHT22;54904;54.350;18.664;2024-01-25T12:11:03;9.40;97.90
18321;DHT22;54904;54.350;18.664;2024-01-25T12:13:33;9.20;97.90
18321;DHT22;54904;54.350;18.664;2024-01-25T12:16:01;9.10;98.20
18321;DHT22;54904;54.350;18.664;2024-01-25T12:18:29;9.10;98.40
18321;DHT22;54904;54.350;18.664;2024-01-25T12:20:59;9.00;98.50
18321;DHT22;54904;54.350;18.664;2024-01-25T12:23:33;9.00;98.70
18321;DHT22;54904;54.350;18.664;2024-01-25T12:26:01;8.90;98.90
18321;DHT22;54904;54.350;18.664;2024-01-25T12:28:30;8.90;99.10
18321;DHT22;54904;54.350;18.664;2024-01-25T12:30:58;8.80;99.30
18321;DHT22;54904;54.350;18.664;2024-01-25T12:33:26;8.80;99.50
18321;DHT22;54904;54.350;18.664;2024-01-25T12:35:53;8.70;99.60
18321;DHT22;54904;54.350;18.664;2024-01-25T12:38:22;8.70;99.80
18321;DHT22;54904;54.350;18.664;2024-01-25T12:40:50;8.70;99.90
18321;DHT22;54904;54.350;18.664;2024-01-25T12:43:17;8.70;99.90
18321;DHT22;54904;54.350;18.664;2024-01-25T12:45:44;8.70;99.90
18321;DHT22;54904;54.350;18.664;2024-01-25T12:48:12;8.70;99.90
18321;DHT22;54904;54.350;18.664;2024-01-25T12:50:39;8.70;99.90
18321;DHT22;54904;54.350;18.664;2024-01-25T12:53:06;8.70;99.90
18321;DHT22;54904;54.350;18.664;2024-01-25T12:55:35;8.80;99.90
18321;DHT22;54904;54.350;18.664;2024-01-25T12:58:03;8.80;99.90
18321;DHT22;54904;54.350;18.664;2024-01-25T13:00:30;8.80;99.90
18321;DHT22;54904;54.350;18.664;2024-01-25T13:02:57;8.90;99.90
18321;DHT22;54904;54.350;18.664;2024-01-25T13:05:24;9.00;99.90
18321;DHT22;54904;54.350;18.664;2024-01-25T13:07:51;8.90;99.90
18321;DHT22;54904;54.350;18.664;2024-01-25T13:10:18;9.00;99.90
18321;DHT22;54904;54.350;18.664;2024-01-25T13:12:46;9.00;99.90
18321;DHT22;54904;54.350;18.664;2024-01-25T13:15:13;8.90;99.90
18321;DHT22;54904;54.350;18.664;2024-01-25T13:17:40;8.90;99.90
18321;DHT22;54904;54.350;18.664;2024-01-25T13:20:08;8.80;99.90
18321;DHT22;54904;54.350;18.664;2024-01-25T13:22:35;8.70;99.90
18321;DHT22;54904;54.350;18.664;2024-01-25T13:25:03;8.70;99.90
18321;DHT22;54904;54.350;18.664;2024-01-25T13:27:31;8.60;99.90
18321;DHT22;54904;54.350;18.664;2024-01-25T13:29:59;8.50;99.90
18321;DHT22;54904;54.350;18.664;2024-01-25T13:32:26;8.40;99.90
18321;DHT22;54904;54.350;18.664;2024-01-25T13:34:54;8.40;99.90
18321;DHT22;54904;54.350;18.664;2024-01-25T13:37:21;8.30;99.90
18321;DHT22;54904;54.350;18.664;2024-01-25T13:39:48;8.20;99.90
18321;DHT22;54904;54.350;18.664;2024-01-25T13:42:15;8.20;99.90
18321;DHT22;54904;54.350;18.664;2024-01-25T13:44:42;8.10;99.90
18321;DHT22;54904;54.350;18.664;2024-01-25T13:47:11;8.10;99.90
18321;DHT22;54904;54.350;18.664;2024-01-25T13:49:38;8.10;99.90
18321;DHT22;54904;54.350;18.664;2024-01-25T13:52:05;8.00;99.90
18321;DHT22;54904;54.350;18.664;2024-01-25T13:54:32;8.00;99.90
18321;DHT22;54904;54.350;18.664;2024-01-25T13:57:00;8.00;99.90
18321;DHT22;54904;54.350;18.664;2024-01-25T13:59:27;7.90;99.90
18321;DHT22;54904;54.350;18.664;2024-01-25T14:01:54;7.90;99.90
18321;DHT22;54904;54.350;18.664;2024-01-25T14:04:23;7.90;99.90
18321;DHT22;54904;54.350;18.664;2024-01-25T14:06:50;7.90;99.90
18321;DHT22;54904;54.350;18.664;2024-01-25T14:09:17;7.90;99.90
18321;DHT22;54904;54.350;18.664;2024-01-25T14:11:44;7.80;99.90
18321;DHT22;54904;54.350;18.664;2024-01-25T14:14:11;7.80;99.90
18321;DHT22;54904;54.350;18.664;2024-01-25T14:16:38;7.80;99.90
18321;DHT22;54904;54.350;18.664;2024-01-25T14:19:05;7.80;99.90
18321;DHT22;54904;54.350;18.664;2024-01-25T14:21:33;7.80;99.90
18321;DHT22;54904;54.350;18.664;2024-01-25T14:24:00;7.70;99.90
18321;DHT22;54904;54.350;18.664;2024-01-25T14:26:28;7.70;99.90
18321;DHT22;54904;54.350;18.664;2024-01-25T14:28:55;7.70;99.90
18321;DHT22;54904;54.350;18.664;2024-01-25T14:31:22;7.70;99.90
18321;DHT22;54904;54.350;18.664;2024-01-25T14:33:49;7.60;99.90
18321;DHT22;54904;54.350;18.664;2024-01-25T14:36:16;7.60;99.90
18321;DHT22;54904;54.350;18.664;2024-01-25T14:38:44;7.60;99.90
18321;DHT22;54904;54.350;18.664;2024-01-25T14:41:12;7.60;99.90
18321;DHT22;54904;54.350;18.664;2024-01-25T14:43:39;7.60;99.90
18321;DHT22;54904;54.350;18.664;2024-01-25T14:46:07;7.60;99.90
18321;DHT22;54904;54.350;18.664;2024-01-25T14:48:34;7.60;99.90
18321;DHT22;54904;54.350;18.664;2024-01-25T14:51:01;7.50;99.90
18321;DHT22;54904;54.350;18.664;2024-01-25T14:53:28;7.50;99.90
18321;DHT22;54904;54.350;18.664;2024-01-25T14:55:56;7.50;99.90
18321;DHT22;54904;54.350;18.664;2024-01-25T14:58:23;7.50;99.90
18321;DHT22;54904;54.350;18.664;2024-01-25T15:00:51;7.40;99.90
18321;DHT22;54904;54.350;18.664;2024-01-25T15:03:18;7.40;99.90
18321;DHT22;54904;54.350;18.664;2024-01-25T15:05:46;7.40;99.90
18321;DHT22;54904;54.350;18.664;2024-01-25T15:08:13;7.30;99.90
18321;DHT22;54904;54.350;18.664;2024-01-25T15:10:40;7.30;99.90
18321;DHT22;54904;54.350;18.664;2024-01-25T15:13:08;7.30;99.90
18321;DHT22;54904;54.350;18.664;2024-01-25T15:15:35;7.30;99.90
18321;DHT22;54904;54.350;18.664;2024-01-25T15:18:02;7.20;99.90
18321;DHT22;54904;54.350;18.664;2024-01-25T15:20:30;7.20;99.90
18321;DHT22;54904;54.350;18.664;2024-01-25T15:22:57;7.20;99.90
18321;DHT22;54904;54.350;18.664;2024-01-25T15:25:26;7.20;99.90
18321;DHT22;54904;54.350;18.664;2024-01-25T15:27:53;7.20;99.90
18321;DHT22;54904;54.350;18.664;2024-01-25T15:30:21;7.20;99.90